createdAt,value
2022-09-14T00:00:34.173Z,97768.88
2022-09-14T00:03:04.213Z,97760.63
2022-09-14T00:05:37.507Z,97771.84
2022-09-14T00:08:07.573Z,97770.56
2022-09-14T00:10:42.388Z,97776.75
2022-09-14T00:13:13.389Z,97772.50
2022-09-14T00:15:47.904Z,97779.31
2022-09-14T00:18:17.826Z,97775.25
2022-09-14T00:20:48.105Z,97774.16
2022-09-14T00:23:18.042Z,97784.72
2022-09-14T00:25:48.189Z,97775.00
2022-09-14T00:28:18.176Z,97776.59
2022-09-14T00:30:49.156Z,97784.88
2022-09-14T00:33:19.201Z,97784.53
2022-09-14T00:35:49.511Z,97790.28
2022-09-14T00:38:19.635Z,97795.06
2022-09-14T00:41:02.447Z,97789.88
2022-09-14T00:43:32.718Z,97794.75
2022-09-14T00:46:04.296Z,97795.22
2022-09-14T00:48:34.670Z,97786.72
2022-09-14T00:51:04.906Z,97788.00
2022-09-14T00:53:35.029Z,97791.94
2022-09-14T00:56:05.193Z,97795.81
2022-09-14T00:58:35.601Z,97802.03
2022-09-14T01:01:05.709Z,97801.19
2022-09-14T01:03:36.113Z,97806.78
2022-09-14T01:06:18.446Z,97811.56
2022-09-14T01:09:03.636Z,97813.03
2022-09-14T01:11:51.630Z,97819.47
2022-09-14T01:14:48.689Z,97815.88
2022-09-14T01:17:37.837Z,97826.63
2022-09-14T01:20:28.541Z,97833.75
2022-09-14T01:23:15.814Z,97825.59
2022-09-14T01:26:20.183Z,97838.06
2022-09-14T01:29:04.844Z,97834.84
2022-09-14T01:31:48.672Z,97833.75
2022-09-14T01:34:38.942Z,97833.06
2022-09-14T01:37:36.002Z,97842.72
2022-09-14T01:40:36.580Z,97848.25
2022-09-14T01:43:29.665Z,97857.19
2022-09-14T01:46:10.923Z,97855.50
2022-09-14T01:48:58.569Z,97862.22
2022-09-14T01:51:37.769Z,97865.69
2022-09-14T01:54:27.685Z,97872.84
2022-09-14T01:57:22.359Z,97879.56
2022-09-14T01:59:57.229Z,97887.59
2022-09-14T02:02:36.270Z,97886.28
2022-09-14T02:05:09.749Z,97887.13
2022-09-14T02:07:40.542Z,97888.06
2022-09-14T02:10:14.906Z,97889.81
2022-09-14T02:12:45.809Z,97896.91
2022-09-14T02:15:17.423Z,97891.47
2022-09-14T02:17:48.564Z,97903.34
2022-09-14T02:20:42.136Z,97907.56
2022-09-14T02:23:12.462Z,97905.19
2022-09-14T02:25:43.834Z,97901.44
2022-09-14T02:28:13.832Z,97905.72
2022-09-14T02:31:02.488Z,97906.22
2022-09-14T02:33:35.505Z,97901.56
2022-09-14T02:36:17.126Z,97905.69
2022-09-14T02:39:02.575Z,97914.38
2022-09-14T02:42:16.905Z,97910.09
2022-09-14T02:44:49.825Z,97908.38
2022-09-14T02:47:36.675Z,97917.06
2022-09-14T02:50:46.485Z,97911.50
2022-09-14T02:53:33.196Z,97915.72
2022-09-14T02:56:09.211Z,97917.72
2022-09-14T02:58:44.703Z,97917.22
2022-09-14T03:01:17.845Z,97918.88
2022-09-14T03:03:48.686Z,97916.25
2022-09-14T03:06:19.421Z,97918.50
2022-09-14T03:08:50.050Z,97916.00
2022-09-14T03:11:20.183Z,97926.19
2022-09-14T03:13:51.129Z,97925.06
2022-09-14T03:16:21.626Z,97916.75
2022-09-14T03:18:51.833Z,97925.13
2022-09-14T03:21:21.802Z,97925.94
2022-09-14T03:23:53.893Z,97926.78
2022-09-14T03:26:25.378Z,97932.09
2022-09-14T03:29:00.657Z,97933.47
2022-09-14T03:31:31.688Z,97925.09
2022-09-14T03:34:03.485Z,97931.13
2022-09-14T03:36:34.406Z,97930.13
2022-09-14T03:39:04.363Z,97926.38
2022-09-14T03:41:34.567Z,97938.34
2022-09-14T03:44:04.648Z,97936.41
2022-09-14T03:46:34.961Z,97939.06
2022-09-14T03:49:05.181Z,97943.53
2022-09-14T03:51:36.978Z,97943.22
2022-09-14T03:54:07.863Z,97945.19
2022-09-14T03:56:37.790Z,97939.03
2022-09-14T03:59:11.767Z,97942.38
2022-09-14T04:01:42.589Z,97941.78
2022-09-14T04:04:12.794Z,97940.94
2022-09-14T04:06:42.738Z,97944.88
2022-09-14T04:09:13.233Z,97943.88
2022-09-14T04:11:43.374Z,97945.28
2022-09-14T04:14:14.762Z,97947.72
2022-09-14T04:16:46.303Z,97953.53
2022-09-14T04:19:16.425Z,97955.34
2022-09-14T04:21:47.422Z,97947.22
2022-09-14T04:24:18.756Z,97953.59
2022-09-14T04:26:49.471Z,97956.66
2022-09-14T04:29:19.559Z,97951.31
2022-09-14T04:31:55.575Z,97954.28
2022-09-14T04:34:27.721Z,97951.63
2022-09-14T04:36:58.266Z,97955.19
2022-09-14T04:39:49.947Z,97957.16
2022-09-14T04:42:20.251Z,97958.06
2022-09-14T04:44:50.192Z,97962.00
2022-09-14T04:47:20.683Z,97957.22
2022-09-14T04:49:50.667Z,97959.50
2022-09-14T04:52:20.940Z,97960.66
2022-09-14T04:54:50.608Z,97962.28
2022-09-14T04:57:20.739Z,97959.50
2022-09-14T04:59:50.404Z,97968.31
2022-09-14T05:02:20.286Z,97956.06
2022-09-14T05:04:50.631Z,97948.31
2022-09-14T05:07:20.430Z,97952.75
2022-09-14T05:09:50.389Z,97955.16
2022-09-14T05:12:20.297Z,97956.59
2022-09-14T05:14:50.295Z,97955.63
2022-09-14T05:17:26.166Z,97956.00
2022-09-14T05:19:57.799Z,97959.84
2022-09-14T05:22:27.618Z,97953.59
2022-09-14T05:24:58.601Z,97948.56
2022-09-14T05:27:28.319Z,97952.66
2022-09-14T05:29:59.658Z,97955.09
2022-09-14T05:32:36.755Z,97950.91
2022-09-14T05:35:09.438Z,97942.78
2022-09-14T05:37:39.920Z,97950.31
2022-09-14T05:40:11.173Z,97943.16
2022-09-14T05:42:45.399Z,97941.97
2022-09-14T05:45:17.425Z,97940.84
2022-09-14T05:47:47.191Z,97942.50
2022-09-14T05:50:17.270Z,97936.97
2022-09-14T05:52:47.420Z,97946.59
2022-09-14T05:55:17.483Z,97946.50
2022-09-14T05:57:51.738Z,97939.78
2022-09-14T06:00:22.837Z,97938.75
2022-09-14T06:02:54.612Z,97935.13
2022-09-14T06:05:26.906Z,97931.78
2022-09-14T06:08:15.231Z,97933.63
2022-09-14T06:10:45.513Z,97937.09
2022-09-14T06:13:15.506Z,97933.75
2022-09-14T06:15:54.415Z,97927.16
2022-09-14T06:18:40.618Z,97931.13
2022-09-14T06:21:20.331Z,97919.91
2022-09-14T06:23:51.654Z,97922.78
2022-09-14T06:26:22.393Z,97913.16
2022-09-14T06:28:52.374Z,97913.38
2022-09-14T06:31:24.169Z,97916.13
2022-09-14T06:33:55.175Z,97907.97
2022-09-14T06:36:28.194Z,97904.19
2022-09-14T06:39:00.291Z,97901.75
2022-09-14T06:41:34.461Z,97898.59
2022-09-14T06:44:09.032Z,97899.25
2022-09-14T06:46:44.556Z,97894.69
2022-09-14T06:49:32.488Z,97889.94
2022-09-14T06:52:06.037Z,97895.84
2022-09-14T06:54:42.383Z,97892.97
2022-09-14T06:57:12.526Z,97891.13
2022-09-14T06:59:43.668Z,97889.81
2022-09-14T07:02:16.180Z,97884.03
2022-09-14T07:04:46.703Z,97881.50
2022-09-14T07:07:21.585Z,97884.47
2022-09-14T07:09:52.798Z,97882.44
2022-09-14T07:12:23.740Z,97880.16
2022-09-14T07:14:53.731Z,97872.88
2022-09-14T07:17:23.897Z,97875.34
2022-09-14T07:19:54.046Z,97872.00
2022-09-14T07:22:25.137Z,97870.81
2022-09-14T07:24:55.301Z,97876.75
2022-09-14T07:27:25.347Z,97879.91
2022-09-14T07:29:55.846Z,97879.13
2022-09-14T07:32:36.958Z,97863.59
2022-09-14T07:35:07.476Z,97856.25
2022-09-14T07:37:38.290Z,97854.31
2022-09-14T07:40:09.078Z,97843.97
2022-09-14T07:42:43.074Z,97855.31
2022-09-14T07:45:13.645Z,97850.13
2022-09-14T07:47:44.263Z,97837.63
2022-09-14T07:50:26.113Z,97841.81
2022-09-14T07:52:57.633Z,97838.00
2022-09-14T07:55:30.743Z,97835.97
2022-09-14T07:58:01.250Z,97818.13
2022-09-14T08:00:31.450Z,97822.31
2022-09-14T08:03:01.355Z,97813.69
2022-09-14T08:05:31.275Z,97813.00
2022-09-14T08:08:04.332Z,97819.00
2022-09-14T08:10:37.777Z,97807.16
2022-09-14T08:13:08.019Z,97804.34
2022-09-14T08:15:43.500Z,97803.66
2022-09-14T08:18:13.024Z,97794.69
2022-09-14T08:20:45.182Z,97795.53
2022-09-14T08:23:15.255Z,97788.19
2022-09-14T08:25:45.336Z,97780.69
2022-09-14T08:28:14.986Z,97783.53
2022-09-14T08:30:46.443Z,97769.91
2022-09-14T08:33:15.981Z,97770.03
2022-09-14T08:35:57.691Z,97768.75
2022-09-14T08:38:27.802Z,97764.56
2022-09-14T08:40:58.417Z,97757.44
2022-09-14T08:43:29.567Z,97758.06
2022-09-14T08:46:07.755Z,97753.75
2022-09-14T08:48:42.465Z,97746.41
2022-09-14T08:51:14.082Z,97753.09
2022-09-14T08:53:45.044Z,97750.59
2022-09-14T08:56:26.901Z,97742.56
2022-09-14T08:59:13.057Z,97733.47
2022-09-14T09:02:02.445Z,97728.13
2022-09-14T09:04:35.152Z,97722.13
2022-09-14T09:07:30.864Z,97721.13
2022-09-14T09:10:01.434Z,97717.66
2022-09-14T09:12:53.837Z,97718.28
2022-09-14T09:15:25.769Z,97712.50
2022-09-14T09:18:13.354Z,97700.84
2022-09-14T09:20:54.160Z,97697.34
2022-09-14T09:23:48.957Z,97687.50
2022-09-14T09:26:28.496Z,97681.47
2022-09-14T09:29:33.286Z,97676.84
2022-09-14T09:33:05.538Z,97678.66
2022-09-14T09:35:55.335Z,97668.84
2022-09-14T09:38:31.198Z,97669.00
2022-09-14T09:41:08.961Z,97663.66
2022-09-14T09:44:04.307Z,97651.53
2022-09-14T09:46:36.724Z,97658.34
2022-09-14T09:49:32.282Z,97664.78
2022-09-14T09:52:28.476Z,97649.13
2022-09-14T09:54:59.734Z,97635.53
2022-09-14T09:57:38.327Z,97630.16
2022-09-14T10:00:22.566Z,97625.16
2022-09-14T10:02:54.152Z,97627.06
2022-09-14T10:05:34.252Z,97623.22
2022-09-14T10:08:11.595Z,97616.41
2022-09-14T10:10:46.080Z,97610.94
2022-09-14T10:13:38.759Z,97620.63
2022-09-14T10:16:15.984Z,97613.31
2022-09-14T10:18:51.402Z,97614.66
2022-09-14T10:21:23.875Z,97612.28
2022-09-14T10:24:17.543Z,97604.47
2022-09-14T10:26:47.321Z,97621.50
2022-09-14T10:29:31.124Z,97627.44
2022-09-14T10:32:25.307Z,97619.97
2022-09-14T10:34:55.864Z,97621.84
2022-09-14T10:37:33.549Z,97615.69
2022-09-14T10:40:17.485Z,97615.69
2022-09-14T10:43:01.643Z,97613.66
2022-09-14T10:45:43.126Z,97613.34
2022-09-14T10:48:39.188Z,97616.00
2022-09-14T10:51:09.491Z,97612.34
2022-09-14T10:54:12.558Z,97611.03
2022-09-14T10:57:06.748Z,97614.00
2022-09-14T10:59:50.151Z,97613.66
2022-09-14T11:02:41.044Z,97607.53
2022-09-14T11:05:22.748Z,97606.63
2022-09-14T11:08:07.926Z,97606.97
2022-09-14T11:10:56.002Z,97600.31
2022-09-14T11:13:34.850Z,97602.00
2022-09-14T11:16:10.701Z,97600.97
2022-09-14T11:19:27.105Z,97606.28
2022-09-14T11:22:00.230Z,97603.81
2022-09-14T11:24:52.405Z,97599.66
2022-09-14T11:27:37.376Z,97599.66
2022-09-14T11:30:25.518Z,97597.84
2022-09-14T11:33:05.273Z,97605.28
2022-09-14T11:35:47.876Z,97598.16
2022-09-14T11:38:25.825Z,97597.34
2022-09-14T11:41:04.720Z,97601.47
2022-09-14T11:44:02.696Z,97602.31
2022-09-14T11:46:51.548Z,97602.38
2022-09-14T11:49:32.348Z,97591.72
2022-09-14T11:52:10.195Z,97598.22
2022-09-14T11:54:53.122Z,97595.41
2022-09-14T11:57:28.036Z,97599.66
2022-09-14T12:00:07.694Z,97592.34
2022-09-14T12:02:39.247Z,97594.66
2022-09-14T12:05:09.414Z,97601.16
2022-09-14T12:07:44.920Z,97602.00
2022-09-14T12:10:18.165Z,97604.16
2022-09-14T12:12:49.924Z,97598.66
2022-09-14T12:15:20.657Z,97601.00
2022-09-14T12:17:51.670Z,97609.63
2022-09-14T12:20:34.777Z,97607.66
2022-09-14T12:23:40.557Z,97606.97
2022-09-14T12:26:14.550Z,97610.84
2022-09-14T12:28:50.995Z,97603.31
2022-09-14T12:31:51.777Z,97608.63
2022-09-14T12:34:25.915Z,97614.94
2022-09-14T12:36:59.275Z,97612.59
2022-09-14T12:39:37.506Z,97617.75
2022-09-14T12:42:30.320Z,97620.25
2022-09-14T12:45:20.349Z,97623.53
2022-09-14T12:47:53.701Z,97624.47
2022-09-14T12:50:24.596Z,97623.25
2022-09-14T12:53:16.226Z,97615.59
2022-09-14T12:56:01.105Z,97618.44
2022-09-14T12:59:06.575Z,97618.59
2022-09-14T13:02:14.463Z,97617.75
2022-09-14T13:04:46.900Z,97628.50
2022-09-14T13:07:21.683Z,97627.97
2022-09-14T13:09:55.153Z,97629.13
2022-09-14T13:12:46.275Z,97625.78
2022-09-14T13:15:38.130Z,97623.75
2022-09-14T13:18:20.369Z,97622.78
2022-09-14T13:20:55.536Z,97617.09
2022-09-14T13:23:43.539Z,97624.53
2022-09-14T13:26:25.790Z,97620.91
2022-09-14T13:28:57.410Z,97625.41
2022-09-14T13:31:39.338Z,97628.25
2022-09-14T13:34:29.414Z,97628.88
2022-09-14T13:37:01.477Z,97619.50
2022-09-14T13:39:37.531Z,97625.00
2022-09-14T13:42:08.326Z,97628.06
2022-09-14T13:44:51.190Z,97631.34
2022-09-14T13:47:32.657Z,97632.00
2022-09-14T13:50:04.856Z,97634.53
2022-09-14T13:53:03.069Z,97642.47
2022-09-14T13:55:36.691Z,97647.16
2022-09-14T13:58:20.922Z,97647.47
2022-09-14T14:00:57.152Z,97657.41
2022-09-14T14:03:37.777Z,97658.50
2022-09-14T14:06:41.693Z,97651.78
2022-09-14T14:09:12.942Z,97650.25
2022-09-14T14:11:53.311Z,97645.19
2022-09-14T14:14:30.931Z,97661.81
2022-09-14T14:17:32.175Z,97655.28
2022-09-14T14:20:26.169Z,97662.09
2022-09-14T14:23:09.170Z,97661.09
2022-09-14T14:25:45.984Z,97662.97
2022-09-14T14:28:31.832Z,97661.63
2022-09-14T14:31:08.970Z,97664.91
2022-09-14T14:33:47.672Z,97672.25
2022-09-14T14:36:17.762Z,97671.75
2022-09-14T14:38:49.478Z,97669.22
2022-09-14T14:41:23.323Z,97675.38
2022-09-14T14:44:22.960Z,97673.41
2022-09-14T14:47:15.951Z,97686.22
2022-09-14T14:50:16.324Z,97684.41
2022-09-14T14:53:08.584Z,97692.00
2022-09-14T14:56:01.958Z,97702.91
2022-09-14T14:58:58.888Z,97700.97
2022-09-14T15:01:53.549Z,97707.16
2022-09-14T15:04:44.623Z,97711.31
2022-09-14T15:07:37.632Z,97710.72
2022-09-14T15:10:32.675Z,97717.69
2022-09-14T15:13:23.596Z,97713.25
2022-09-14T15:16:15.336Z,97718.72
2022-09-14T15:19:05.648Z,97728.09
2022-09-14T15:22:01.037Z,97725.28
2022-09-14T15:24:52.007Z,97732.53
2022-09-14T15:27:42.895Z,97732.56
2022-09-14T15:30:14.956Z,97730.91
2022-09-14T15:33:04.230Z,97745.09
2022-09-14T15:35:59.640Z,97742.13
2022-09-14T15:38:49.768Z,97743.44
2022-09-14T15:41:41.125Z,97749.00
2022-09-14T15:44:32.316Z,97750.81
2022-09-14T15:47:22.730Z,97744.84
2022-09-14T15:50:13.316Z,97750.56
2022-09-14T15:53:03.392Z,97750.97
2022-09-14T15:55:54.434Z,97751.53
2022-09-14T15:58:48.126Z,97754.59
2022-09-14T16:01:38.615Z,97765.63
2022-09-14T16:04:29.845Z,97764.66
2022-09-14T16:07:00.892Z,97763.25
2022-09-14T16:09:30.775Z,97762.97
2022-09-14T16:12:01.982Z,97763.22
2022-09-14T16:14:32.328Z,97767.44
2022-09-14T16:17:02.933Z,97764.09
2022-09-14T16:19:33.526Z,97764.94
2022-09-14T16:22:03.325Z,97767.44
2022-09-14T16:24:33.722Z,97767.56
2022-09-14T16:27:03.760Z,97763.53
2022-09-14T16:29:33.807Z,97764.22
2022-09-14T16:32:03.531Z,97767.72
2022-09-14T16:34:34.281Z,97772.72
2022-09-14T16:37:04.019Z,97769.06
2022-09-14T16:39:36.305Z,97770.91
2022-09-14T16:42:06.542Z,97772.16
2022-09-14T16:44:36.511Z,97775.50
2022-09-14T16:47:07.396Z,97764.34
2022-09-14T16:49:39.358Z,97767.28
2022-09-14T16:52:09.816Z,97769.09
2022-09-14T16:54:40.885Z,97763.22
2022-09-14T16:57:11.292Z,97773.56
2022-09-14T16:59:41.550Z,97771.88
2022-09-14T17:02:14.339Z,97776.91
2022-09-14T17:04:44.748Z,97789.69
2022-09-14T17:07:18.030Z,97785.78
2022-09-14T17:09:47.940Z,97787.03
2022-09-14T17:12:18.217Z,97785.81
2022-09-14T17:14:49.129Z,97786.38
2022-09-14T17:17:19.195Z,97789.97
2022-09-14T17:19:49.249Z,97799.03
2022-09-14T17:22:19.339Z,97794.47
2022-09-14T17:24:50.123Z,97795.00
2022-09-14T17:27:21.430Z,97792.22
2022-09-14T17:29:52.439Z,97792.22
2022-09-14T17:32:22.411Z,97800.56
2022-09-14T17:34:53.605Z,97804.72
2022-09-14T17:37:24.922Z,97802.63
2022-09-14T17:39:55.052Z,97803.34
2022-09-14T17:42:25.150Z,97805.84
2022-09-14T17:44:55.437Z,97799.66
2022-09-14T17:47:27.130Z,97802.47
2022-09-14T17:49:57.065Z,97797.69
2022-09-14T17:52:26.833Z,97804.22
2022-09-14T17:54:57.458Z,97806.50
2022-09-14T17:57:27.304Z,97803.19
2022-09-14T17:59:57.194Z,97806.00
2022-09-14T18:02:27.287Z,97814.22
2022-09-14T18:04:57.115Z,97816.28
2022-09-14T18:07:27.685Z,97811.16
2022-09-14T18:09:57.841Z,97812.84
2022-09-14T18:12:28.917Z,97810.31
2022-09-14T18:14:58.672Z,97811.81
2022-09-14T18:17:29.426Z,97818.91
2022-09-14T18:20:00.056Z,97812.94
2022-09-14T18:22:31.756Z,97821.59
2022-09-14T18:25:01.629Z,97816.38
2022-09-14T18:27:32.517Z,97822.19
2022-09-14T18:30:04.869Z,97822.19
2022-09-14T18:32:35.281Z,97814.88
2022-09-14T18:35:06.570Z,97817.44
2022-09-14T18:37:36.875Z,97813.91
2022-09-14T18:40:07.125Z,97805.13
2022-09-14T18:42:38.018Z,97813.78
2022-09-14T18:45:08.445Z,97811.84
2022-09-14T18:47:38.256Z,97811.25
2022-09-14T18:50:10.004Z,97807.00
2022-09-14T18:52:39.778Z,97797.88
2022-09-14T18:55:10.252Z,97800.69
2022-09-14T18:57:41.081Z,97801.22
2022-09-14T19:00:15.121Z,97795.03
2022-09-14T19:02:55.577Z,97804.22
2022-09-14T19:05:26.988Z,97795.03
2022-09-14T19:07:56.982Z,97793.34
2022-09-14T19:10:28.154Z,97799.84
2022-09-14T19:12:58.122Z,97790.91
2022-09-14T19:15:30.833Z,97794.50
2022-09-14T19:18:03.346Z,97795.97
2022-09-14T19:20:55.083Z,97786.22
2022-09-14T19:23:24.458Z,97785.94
2022-09-14T19:25:54.244Z,97781.47
2022-09-14T19:28:24.312Z,97782.72
2022-09-14T19:30:54.184Z,97782.09
2022-09-14T19:33:25.349Z,97771.81
2022-09-14T19:35:55.134Z,97772.19
2022-09-14T19:38:25.957Z,97774.19
2022-09-14T19:40:55.757Z,97764.91
2022-09-14T19:43:25.638Z,97762.47
2022-09-14T19:45:56.373Z,97762.25
2022-09-14T19:48:26.665Z,97763.31
2022-09-14T19:51:01.473Z,97766.59
2022-09-14T19:53:33.075Z,97761.63
2022-09-14T19:56:07.361Z,97756.03
2022-09-14T19:58:42.334Z,97754.56
2022-09-14T20:01:12.926Z,97754.81
2022-09-14T20:03:43.209Z,97755.25
2022-09-14T20:06:21.037Z,97751.91
2022-09-14T20:08:53.489Z,97756.34
2022-09-14T20:11:25.141Z,97751.34
2022-09-14T20:13:57.163Z,97748.06
2022-09-14T20:16:35.961Z,97749.59
2022-09-14T20:19:12.158Z,97754.66
2022-09-14T20:21:43.367Z,97756.03
2022-09-14T20:24:19.534Z,97750.50
2022-09-14T20:26:51.863Z,97748.44
2022-09-14T20:29:24.382Z,97752.31
2022-09-14T20:31:54.943Z,97748.00
2022-09-14T20:34:25.157Z,97751.34
2022-09-14T20:36:55.920Z,97747.78
2022-09-14T20:39:26.438Z,97757.34
2022-09-14T20:41:56.504Z,97747.03
2022-09-14T20:44:27.913Z,97742.78
2022-09-14T20:46:58.171Z,97734.88
2022-09-14T20:49:28.215Z,97746.38
2022-09-14T20:51:58.787Z,97745.88
2022-09-14T20:54:30.002Z,97743.34
2022-09-14T20:57:04.082Z,97740.13
2022-09-14T20:59:36.071Z,97741.19
2022-09-14T21:02:06.004Z,97746.03
2022-09-14T21:04:37.848Z,97743.41
2022-09-14T21:07:07.641Z,97732.59
2022-09-14T21:09:38.259Z,97732.13
2022-09-14T21:12:12.848Z,97728.00
2022-09-14T21:14:44.674Z,97734.75
2022-09-14T21:17:14.374Z,97729.69
2022-09-14T21:19:44.260Z,97724.16
2022-09-14T21:22:15.078Z,97728.31
2022-09-14T21:24:44.957Z,97722.25
2022-09-14T21:27:15.055Z,97710.81
2022-09-14T21:29:44.945Z,97715.16
2022-09-14T21:32:15.856Z,97719.19
2022-09-14T21:34:45.816Z,97716.50
2022-09-14T21:37:15.616Z,97712.25
2022-09-14T21:39:45.550Z,97714.16
2022-09-14T21:42:15.393Z,97711.53
2022-09-14T21:44:45.234Z,97707.69
2022-09-14T21:47:15.752Z,97710.31
2022-09-14T21:49:45.589Z,97708.84
2022-09-14T21:52:16.039Z,97704.53
2022-09-14T21:54:47.110Z,97710.19
2022-09-14T21:57:17.910Z,97710.56
2022-09-14T21:59:47.952Z,97707.50
2022-09-14T22:02:18.756Z,97712.50
2022-09-14T22:04:49.103Z,97705.56
2022-09-14T22:07:19.973Z,97700.03
2022-09-14T22:09:49.866Z,97695.94
2022-09-14T22:12:21.631Z,97700.94
2022-09-14T22:14:51.792Z,97700.53
2022-09-14T22:17:22.195Z,97701.97
2022-09-14T22:19:56.278Z,97696.22
2022-09-14T22:22:27.250Z,97693.66
2022-09-14T22:24:57.068Z,97702.22
2022-09-14T22:27:26.942Z,97702.50
2022-09-14T22:29:57.148Z,97705.56
2022-09-14T22:32:26.795Z,97702.97
2022-09-14T22:34:57.721Z,97701.13
2022-09-14T22:37:27.380Z,97698.84
2022-09-14T22:39:57.430Z,97704.88
2022-09-14T22:42:29.279Z,97704.28
2022-09-14T22:44:59.975Z,97704.28
2022-09-14T22:47:31.341Z,97703.44
2022-09-14T22:50:01.149Z,97704.13
2022-09-14T22:52:30.701Z,97715.06
2022-09-14T22:55:01.427Z,97713.06
2022-09-14T22:57:31.333Z,97718.28
2022-09-14T23:00:01.097Z,97720.44
2022-09-14T23:02:30.976Z,97717.13
2022-09-14T23:05:00.987Z,97719.28
2022-09-14T23:07:33.420Z,97719.88
2022-09-14T23:10:04.200Z,97719.50
2022-09-14T23:12:34.694Z,97719.88
2022-09-14T23:15:05.336Z,97719.41
2022-09-14T23:17:35.425Z,97723.34
2022-09-14T23:20:06.732Z,97731.78
2022-09-14T23:22:36.524Z,97721.44
2022-09-14T23:25:07.153Z,97731.72
2022-09-14T23:27:36.968Z,97724.56
2022-09-14T23:30:08.364Z,97720.84
2022-09-14T23:32:38.283Z,97724.59
2022-09-14T23:35:09.483Z,97726.47
2022-09-14T23:37:40.004Z,97730.44
2022-09-14T23:40:11.196Z,97734.38
2022-09-14T23:42:41.240Z,97737.75
2022-09-14T23:45:12.306Z,97732.13
2022-09-14T23:47:42.195Z,97730.56
2022-09-14T23:50:12.903Z,97727.31
2022-09-14T23:52:42.686Z,97728.31
2022-09-14T23:55:12.592Z,97731.09
2022-09-14T23:57:43.236Z,97723.91
